Log in  \/ 
x
x

Ramona Operations

Additional info
  • Operations Officer: Julie Keane
  • Phone Number: 760-703-1967
  • E-Mail: rnmops@plusoneflyers.org
Comments
  • No comments found

Leave your comments

0 Character restriction
Your text should be more than 10 characters
terms and condition.
Special Instructions

To access the field, press #### to call for entry.

Ramona Weather

[source: ADDS]
METAR
KRNM 290453Z 27004KT 10SM CLR 14/12 A2992 RMK AO2 SLP116 T01390122 $ =
KNKX 290455Z 21004KT 10SM BKN012 17/12 A2992 RMK AO2 SLP124 T01720122 $ =
TAF
TAF KNKX 2903/3003 VRB05KT 9999 SCT010 QNH2987INS BECMG 2904/2906 VRB05KT 9999 BKN010 QNH2989INS TEMPO 2906/2912 3200 BR OVC005 BECMG 2914/2916 22007KT 9999 SCT010 QNH2989INS FM300130 VRB05KT 9999 BKN010 QNH2989INS T16/2912Z T26/2922Z =
SR / SS: 12:42 / 03:00 UTC ( 2017-06-29)

Ramona Operations Map